Home > Products > Valid Products > MTR

000
SAUS44 KLZK 041654
MTRMWT
METAR KMWT 041653Z AUTO 00000KT 10SM OVC015 26/22 A2999 RMK AO2
SLP145 T02560217





000
SAUS44 KLZK 041649
MTRMWT
SPECI KMWT 041648Z AUTO 13005KT 10SM OVC015 25/21 A2999 RMK AO2





000
SAUS44 KLZK 041554
MTRMWT
METAR KMWT 041553Z AUTO VRB04KT 10SM BKN011 24/21 A2998 RMK AO2
SLP141 T02390211





000
SAUS44 KLZK 041551
MTRMWT
SPECI KMWT 041550Z AUTO 20005KT 10SM BKN009 24/21 A2998 RMK AO2 CIG
008V014





000
SAUS44 KLZK 041515
MTRMWT
SPECI KMWT 041514Z AUTO 00000KT 10SM SCT009 23/21 A2999 RMK AO2
T02280211





000
SAUS44 KLZK 041454
MTRMWT
METAR KMWT 041453Z AUTO 00000KT 10SM BKN008 23/21 A2998 RMK AO2 CIG
006V011 SLP142 60001 T02330211 51007





000
SAUS44 KLZK 041439
MTRMWT
SPECI KMWT 041438Z AUTO 00000KT 10SM BKN006 23/21 A2997 RMK AO2 CIG
003V011 T02280211





000
SAUS44 KLZK 041439
MTRMWT
SPECI KMWT 041438Z AUTO 00000KT 10SM BKN006 23/21 A2997 RMK AO2 CIG
003V011 T02280211





000
SAUS44 KLZK 041354
MTRMWT
METAR KMWT 041353Z AUTO 00000KT 10SM SCT003 BKN033 BKN100 22/21
A2998 RMK AO2 RAB06E28 SLP142 P0001 T02220206





000
SAUS44 KLZK 041354
MTRMWT
METAR KMWT 041353Z AUTO 00000KT 10SM SCT003 BKN033 BKN100 22/21
A2998 RMK AO2 RAB06E28 SLP142 P0001 T02220206





000
SAUS44 KLZK 041254
MTRMWT
METAR KMWT 041253Z AUTO 00000KT 8SM OVC033 22/21 A2998 RMK AO2 RAE08
SLP140 P0000 T02170206





000
SAUS44 KLZK 041254
MTRMWT
METAR KMWT 041253Z AUTO 00000KT 8SM OVC033 22/21 A2998 RMK AO2 RAE08
SLP140 P0000 T02170206





000
SAUS44 KLZK 041154
MTRMWT
METAR KMWT 041153Z AUTO 00000KT 9SM -RA BKN037 OVC049 22/21 A2996
RMK AO2 RAE1056B38 SLP134 P0000 60184 70273 T02170206 10222 20217
53012





000
SAUS44 KLZK 041055
MTRMWT
METAR KMWT 041053Z AUTO 13003KT 10SM -RA OVC031 22/21 A2995 RMK AO2
SLP131 P0013 T02170211





000
SAUS44 KLZK 041022
MTRMWT
SPECI KMWT 041021Z AUTO 00000KT 4SM -RA BR SCT034 BKN049 OVC100
22/21 A2993 RMK AO2 P0011 T02170211





000
SAUS44 KLZK 041013
MTRMWT
SPECI KMWT 041012Z AUTO 00000KT 2SM -RA BR BKN035 BKN050 OVC100
22/21 A2992 RMK AO2 P0010 T02170211





000
SAUS44 KLZK 041001
MTRMWT
SPECI KMWT 041000Z AUTO 00000KT 6SM -RA BR SCT019 BKN040 OVC110
22/21 A2993 RMK AO2 P0000 T02220211





000
SAUS44 KLZK 041001
MTRMWT
SPECI KMWT 041000Z AUTO 00000KT 6SM -RA BR SCT019 BKN040 OVC110
22/21 A2993 RMK AO2 P0000 T02220211





000
SAUS44 KLZK 040954
MTRMWT
METAR KMWT 040953Z AUTO 12004KT 2 1/2SM RA BR BKN021 BKN050 OVC110
22/21 A2992 RMK AO2 RAB0857 PRESFR SLP120 P0171 T02220211





000
SAUS44 KLZK 040954
MTRMWT
METAR KMWT 040953Z AUTO 12004KT 2 1/2SM RA BR BKN021 BKN050 OVC110
22/21 A2992 RMK AO2 RAB0857 PRESFR SLP120 P0171 T02220211





000
SAUS44 KLZK 040934
MTRMWT
SPECI KMWT 040933Z AUTO VRB04KT 1/2SM +RA FG BKN017 OVC047 22/21
A2994 RMK AO2 RAB0857 P0107 T02220211





000
SAUS44 KLZK 040924
MTRMWT
SPECI KMWT 040923Z AUTO 21006KT 1 1/2SM +RA BR BKN021 OVC049 22/21
A2993 RMK AO2 RAB0857 P0070 T02170211





000
SAUS44 KLZK 040924
MTRMWT
SPECI KMWT 040923Z AUTO 21006KT 1 1/2SM +RA BR BKN021 OVC049 22/21
A2993 RMK AO2 RAB0857 P0070 T02170211





000
SAUS44 KLZK 040912
MTRMWT
SPECI KMWT 040911Z AUTO VRB05KT 3/4SM +RA BR FEW016 BKN021 OVC028
22/21 A2991 RMK AO2 RAB0857 P0046 T02170211





000
SAUS44 KLZK 040912
MTRMWT
SPECI KMWT 040911Z AUTO VRB05KT 3/4SM +RA BR FEW016 BKN021 OVC028
22/21 A2991 RMK AO2 RAB0857 P0046 T02170211





000
SAUS44 KLZK 040901
MTRMWT
SPECI KMWT 040900Z AUTO 00000KT 1 3/4SM +RA BR FEW016 BKN026 OVC060
22/21 A2992 RMK AO2 RAB0857 P0002 T02170206





000
SAUS44 KLZK 040855
MTRMWT
METAR KMWT 040853Z AUTO 36004KT 8SM FEW016 BKN025 BKN031 22/21 A2993
RMK AO2 SLP124 T02170206 53002





000
SAUS44 KLZK 040855
MTRMWT
METAR KMWT 040853Z AUTO 36004KT 8SM FEW016 BKN025 BKN031 22/21 A2993
RMK AO2 SLP124 T02170206 53002





000
SAUS44 KLZK 040754
MTRMWT
METAR KMWT 040753Z AUTO 00000KT 6SM BR CLR 22/21 A2990 RMK AO2
SLP116 T02170206





000
SAUS44 KLZK 040754
MTRMWT
METAR KMWT 040753Z AUTO 00000KT 6SM BR CLR 22/21 A2990 RMK AO2
SLP116 T02170206





000
SAUS44 KLZK 040654
MTRMWT
METAR KMWT 040653Z AUTO 00000KT 8SM SCT055 22/21 A2992 RMK AO2
SLP120 T02170206





000
SAUS44 KLZK 040556
MTRMWT
METAR KMWT 040553Z AUTO 00000KT 10SM FEW025 22/21 A2992 RMK AO2
SLP119 60001 T02220211 10283 20222 402830217 50003





000
SAUS44 KLZK 040548
MTRMWT
SPECI KMWT 040546Z AUTO 00000KT 10SM SCT026 22/21 A2992 RMK AO2
T02220211





000
SAUS44 KLZK 040527
MTRMWT
SPECI KMWT 040525Z AUTO 15003KT 10SM BKN026 BKN033 OVC043 23/21
A2992 RMK AO2 T02280211





000
SAUS44 KLZK 040454
MTRMWT
METAR KMWT 040453Z AUTO VRB03KT 10SM CLR 23/22 A2994 RMK AO2 SLP127
T02280217





000
SAUS44 KLZK 040414
MTRMWT
SPECI KMWT 040413Z AUTO 00000KT 9SM SCT018 SCT070 BKN120 24/23 A2995
RMK AO2 T02440228





000
SAUS44 KLZK 040401
MTRMWT
SPECI KMWT 040400Z AUTO 00000KT 10SM SCT015 BKN022 BKN034 24/23
A2993 RMK AO2 T02440228





000
SAUS44 KLZK 040401
MTRMWT
SPECI KMWT 040400Z AUTO 00000KT 10SM SCT015 BKN022 BKN034 24/23
A2993 RMK AO2 T02440228





000
SAUS44 KLZK 040354
MTRMWT
METAR KMWT 040353Z AUTO 33004KT 8SM SCT021 BKN034 OVC110 24/23 A2994
RMK AO2 RAE51 SLP126 P0001 T02440233





000
SAUS44 KLZK 040254
MTRMWT
METAR KMWT 040253Z AUTO 17003KT 10SM -RA FEW039 BKN085 25/23 A2991
RMK AO2 RAB52 SLP117 P0000 60000 T02500233 53014





000
SAUS44 KLZK 040154
MTRMWT
METAR KMWT 040153Z AUTO 00000KT 10SM CLR 26/23 A2988 RMK AO2 SLP108
T02610228





000
SAUS44 KLZK 040054
MTRMWT
METAR KMWT 040053Z AUTO 00000KT 10SM CLR 26/23 A2987 RMK AO2 SLP104
T02610228





000
SAUS44 KLZK 040054
MTRMWT
METAR KMWT 040053Z AUTO 00000KT 10SM CLR 26/23 A2987 RMK AO2 SLP104
T02610228





000
SAUS44 KLZK 032354
MTRMWT
METAR KMWT 032353Z AUTO VRB04KT 10SM CLR 28/23 A2987 RMK AO2 SLP101
60036 T02830228 10283 20233 58012





000
SAUS44 KLZK 032254
MTRMWT
METAR KMWT 032253Z AUTO VRB06KT 10SM CLR 28/23 A2989 RMK AO2 SLP107
T02830228





000
SAUS44 KLZK 032154
MTRMWT
METAR KMWT 032153Z AUTO 10SM CLR 28/23 A2989 RMK AO2 RAB2056E05
SLP107 P0000 T02830233





000
SAUS44 KLZK 032154
MTRMWT
METAR KMWT 032153Z AUTO 10SM CLR 28/23 A2989 RMK AO2 RAB2056E05
SLP107 P0000 T02830233





000
SAUS44 KLZK 032054
MTRMWT
METAR KMWT 032053Z AUTO VRB04KT 10SM FEW014 SCT021 BKN038 25/22
A2990 RMK AO2 SLP114 60036 T02500217 55004





000
SAUS44 KLZK 032054
MTRMWT
METAR KMWT 032053Z AUTO VRB04KT 10SM FEW014 SCT021 BKN038 25/22
A2990 RMK AO2 SLP114 60036 T02500217 55004





000
SAUS44 KLZK 032052
MTRMWT
SPECI KMWT 032051Z AUTO VRB03KT 10SM FEW014 SCT021 BKN030 25/22
A2990 RMK AO2





000
SAUS44 KLZK 031954
MTRMWT
METAR KMWT 031953Z AUTO VRB04KT 10SM BKN025 BKN033 OVC050 24/23
A2992 RMK AO2 RAB07E53 SLP120 P0036 T02440228





000
SAUS44 KLZK 031954
MTRMWT
METAR KMWT 031953Z AUTO VRB04KT 10SM BKN025 BKN033 OVC050 24/23
A2992 RMK AO2 RAB07E53 SLP120 P0036 T02440228





000
SAUS44 KLZK 031927
MTRMWT
SPECI KMWT 031926Z AUTO VRB04KT 4SM -RA BR FEW023 BKN031 BKN050
24/22 A2991 RMK AO2 RAB07 P0034 T02390222





000
SAUS44 KLZK 031926
MTRMWT
SPECI KMWT 031924Z AUTO VRB04KT 1 1/2SM -RA BR SCT025 BKN031 BKN048
24/22 A2991 RMK AO2 RAB07 P0034 T02390222





000
SAUS44 KLZK 031926
MTRMWT
SPECI KMWT 031924Z AUTO VRB04KT 1 1/2SM -RA BR SCT025 BKN031 BKN048
24/22 A2991 RMK AO2 RAB07 P0034 T02390222





000
SAUS44 KLZK 031910
MTRMWT
SPECI KMWT 031909Z AUTO 3/4SM RA SCT020 BKN026 BKN032 25/22 A2993
RMK AO2 RAB07 P0000 T02500222





000
SAUS44 KLZK 031854
MTRMWT
METAR KMWT 031853Z AUTO 00000KT 10SM FEW020 SCT030 BKN065 28/23
A2992 RMK AO2 SLP117 T02780228





000
SAUS44 KLZK 031854
MTRMWT
METAR KMWT 031853Z AUTO 00000KT 10SM FEW020 SCT030 BKN065 28/23
A2992 RMK AO2 SLP117 T02780228





000
SAUS44 KLZK 031847
MTRMWT
SPECI KMWT 031846Z AUTO VRB03KT 10SM FEW018 SCT030 BKN060 28/23
A2992 RMK AO2 T02830233





000
SAUS44 KLZK 031754
MTRMWT
METAR KMWT 031753Z AUTO 10SM SCT018 BKN024 OVC060 27/23 A2994 RMK
AO2 SLP125 60052 T02720228 10272 20217 58008





000
SAUS44 KLZK 031754
MTRMWT
METAR KMWT 031753Z AUTO 10SM SCT018 BKN024 OVC060 27/23 A2994 RMK
AO2 SLP125 60052 T02720228 10272 20217 58008





000
SAUS44 KLZK 031722
MTRMWT
SPECI KMWT 031721Z AUTO VRB04KT 10SM FEW017 BKN024 BKN048 26/22
A2994 RMK AO2 T02610222





000
SAUS44 KLZK 031654
MTRMWT
METAR KMWT 031653Z AUTO 00000KT 10SM FEW019 SCT065 26/23 A2994 RMK
AO2 SLP126 T02560228





000
SAUS44 KLZK 031554
MTRMWT
METAR KMWT 031553Z AUTO 00000KT 10SM FEW004 BKN043 BKN065 23/21
A2996 RMK AO2 RAE49 SLP133 P0008 T02280211





000
SAUS44 KLZK 031545
MTRMWT
SPECI KMWT 031544Z AUTO 00000KT 10SM -RA SCT004 BKN039 OVC085 22/21
A2995 RMK AO2 P0008 T02220211





000
SAUS44 KLZK 031527
MTRMWT
SPECI KMWT 031525Z AUTO 21003KT 6SM RA BR SCT018 BKN050 OVC090 22/21
A2996 RMK AO2 P0007 T02220211





000
SAUS44 KLZK 031454
MTRMWT
METAR KMWT 031453Z AUTO 33005KT 5SM -RA BR BKN020 OVC028 22/21 A2996
RMK AO2 RAE01B25 SLP134 P0004 60044 T02220211 53019





000
SAUS44 KLZK 031401
MTRMWT
SPECI KMWT 031401Z AUTO 33006KT 9SM FEW014 BKN025 OVC039 23/22 A2994
RMK AO2 RAE01 P0000 T02280217





000
SAUS44 KLZK 031354
MTRMWT
METAR KMWT 031353Z AUTO VRB05KT 2 1/2SM -RA BR SCT013 BKN025 OVC038
23/22 A2994 RMK AO2 SLP127 P0036 T02280217





000
SAUS44 KLZK 031342
MTRMWT
SPECI KMWT 031340Z AUTO VRB05KT 1 1/2SM +RA BR SCT015 BKN026 OVC040
23/22 A2994 RMK AO2 VIS 1V4 P0018 T02330217





000
SAUS44 KLZK 031326
MTRMWT
SPECI KMWT 031325Z AUTO VRB03KT 2SM -RA BR SCT016 BKN022 OVC026
24/23 A2994 RMK AO2 P0006 T02390228





000
SAUS44 KLZK 031307
MTRMWT
SPECI KMWT 031306Z AUTO 00000KT 5SM -RA BR BKN020 BKN029 OVC050
24/23 A2993 RMK AO2 P0001 T02390228





000
SAUS44 KLZK 031307
MTRMWT
SPECI KMWT 031306Z AUTO 00000KT 5SM -RA BR BKN020 BKN029 OVC050
24/23 A2993 RMK AO2 P0001 T02390228





000
SAUS44 KLZK 031254
MTRMWT
METAR KMWT 031253Z AUTO 00000KT 7SM -RA SCT030 BKN050 OVC080 24/23
A2992 RMK AO2 SLP118 P0004 T02390228





000
SAUS44 KLZK 031154
MTRMWT
METAR KMWT 031153Z AUTO 10SM -RA SCT120 24/22 A2991 RMK AO2 SLP114
P0004 60011 70011 T02390222 10256 20239 56001





000
SAUS44 KLZK 031054
MTRMWT
METAR KMWT 031053Z AUTO VRB03KT 5SM -RA BR FEW070 OVC090 24/22 A2990
RMK AO2 RAE0957B42 SLP114 P0001 T02440222





000
SAUS44 KLZK 031054
MTRMWT
METAR KMWT 031053Z AUTO VRB03KT 5SM -RA BR FEW070 OVC090 24/22 A2990
RMK AO2 RAE0957B42 SLP114 P0001 T02440222





000
SAUS44 KLZK 030954
MTRMWT
METAR KMWT 030953Z AUTO 00000KT 9SM -RA BKN100 BKN120 24/22 A2990
RMK AO2 SLP112 P0005 T02390222





000
SAUS44 KLZK 030854
MTRMWT
METAR KMWT 030853Z AUTO VRB04KT 6SM -RA BR BKN100 BKN120 24/22 A2991
RMK AO2 RAE11B29 SLP114 P0001 60001 T02440222 58005





000
SAUS44 KLZK 030754
MTRMWT
METAR KMWT 030753Z AUTO 00000KT 10SM -RA FEW048 SCT060 BKN120 24/22
A2991 RMK AO2 RAB21 SLP115 P0000 T02440222





000
SAUS44 KLZK 030754
MTRMWT
METAR KMWT 030753Z AUTO 00000KT 10SM -RA FEW048 SCT060 BKN120 24/22
A2991 RMK AO2 RAB21 SLP115 P0000 T02440222





000
SAUS44 KLZK 030654
MTRMWT
METAR KMWT 030653Z AUTO 00000KT 10SM OVC055 25/23 A2992 RMK AO2
RAB0558E34 SLP119 P0000 T02500228





000
SAUS44 KLZK 030554
MTRMWT
METAR KMWT 030553Z AUTO 00000KT 10SM BKN060 BKN080 BKN110 26/22
A2992 RMK AO2 SLP119 T02560222 10283 20256 403110244 50004





000
SAUS44 KLZK 030554
MTRMWT
METAR KMWT 030553Z AUTO 00000KT 10SM BKN060 BKN080 BKN110 26/22
A2992 RMK AO2 SLP119 T02560222 10283 20256 403110244 50004





000
SAUS44 KLZK 030455
MTRMWT
METAR KMWT 030453Z AUTO VRB03KT 10SM BKN060 OVC080 27/21 A2993 RMK
AO2 SLP121 T02720206





000
SAUS44 KLZK 030455
MTRMWT
METAR KMWT 030453Z AUTO VRB03KT 10SM BKN060 OVC080 27/21 A2993 RMK
AO2 SLP121 T02720206





000
SAUS44 KLZK 030354
MTRMWT
METAR KMWT 030353Z AUTO 00000KT 10SM BKN095 27/21 A2994 RMK AO2
SLP124 T02720206





000
SAUS44 KLZK 030354
MTRMWT
METAR KMWT 030353Z AUTO 00000KT 10SM BKN095 27/21 A2994 RMK AO2
SLP124 T02720206





000
SAUS44 KLZK 030254
MTRMWT
METAR KMWT 030253Z AUTO 00000KT 10SM CLR 28/21 A2991 RMK AO2 SLP115
T02780206 53007





000
SAUS44 KLZK 030154
MTRMWT
METAR KMWT 030153Z AUTO 00000KT 10SM CLR 28/21 A2989 RMK AO2 SLP107
T02780211





000
SAUS44 KLZK 030054
MTRMWT
METAR KMWT 030053Z AUTO 00000KT 10SM CLR 28/21 A2987 RMK AO2 SLP101
T02780211





000
SAUS44 KLZK 022354
MTRMWT
METAR KMWT 022353Z AUTO VRB04KT 10SM CLR 28/21 A2989 RMK AO2 SLP108
T02830211 10311 20283 55004





000
SAUS44 KLZK 022254
MTRMWT
METAR KMWT 022253Z AUTO VRB03KT 10SM CLR 29/21 A2989 RMK AO2 SLP107
T02890206





000
SAUS44 KLZK 022154
MTRMWT
METAR KMWT 022153Z AUTO VRB06KT 10SM CLR 31/20 A2989 RMK AO2 SLP108
T03060200





000
SAUS44 KLZK 022154
MTRMWT
METAR KMWT 022153Z AUTO VRB06KT 10SM CLR 31/20 A2989 RMK AO2 SLP108
T03060200





000
SAUS44 KLZK 022054
MTRMWT
METAR KMWT 022053Z AUTO 25007G17KT 200V330 10SM CLR 31/20 A2990 RMK
AO2 SLP110 T03060200 58007





000
SAUS44 KLZK 021954
MTRMWT
METAR KMWT 021953Z AUTO VRB04KT 10SM CLR 31/21 A2991 RMK AO2 SLP115
T03060206





000
SAUS44 KLZK 021854
MTRMWT
METAR KMWT 021853Z AUTO 27007G17KT 200V360 10SM CLR 29/20 A2992 RMK
AO2 SLP117 T02940200





000
SAUS44 KLZK 021854
MTRMWT
METAR KMWT 021853Z AUTO 27007G17KT 200V360 10SM CLR 29/20 A2992 RMK
AO2 SLP117 T02940200





000
SAUS44 KLZK 021754
MTRMWT
METAR KMWT 021753Z AUTO VRB06KT 10SM CLR 28/20 A2992 RMK AO2 SLP117
T02830200 10289 20244 58001





000
SAUS44 KLZK 021654
MTRMWT
METAR KMWT 021653Z AUTO VRB05G16KT 10SM CLR 29/20 A2992 RMK AO2
SLP118 T02890200





000
SAUS44 KLZK 021555
MTRMWT
METAR KMWT 021553Z AUTO VRB03KT 10SM CLR 27/21 A2992 RMK AO2 SLP119
T02670206





000
SAUS44 KLZK 021454
MTRMWT
METAR KMWT 021453Z AUTO VRB05KT 10SM CLR 27/20 A2992 RMK AO2 SLP118
T02720200 50004





000
SAUS44 KLZK 021354
MTRMWT
METAR KMWT 021353Z AUTO 28007KT 250V320 10SM CLR 26/20 A2993 RMK AO2
SLP121 T02610200





000
SAUS44 KLZK 021354
MTRMWT
METAR KMWT 021353Z AUTO 28007KT 250V320 10SM CLR 26/20 A2993 RMK AO2
SLP121 T02610200





000
SAUS44 KLZK 021254
MTRMWT
METAR KMWT 021253Z AUTO VRB04KT 10SM CLR 25/20 A2993 RMK AO2 SLP120
T02500200





000
SAUS44 KLZK 021154
MTRMWT
METAR KMWT 021153Z AUTO VRB03KT 10SM CLR 25/19 A2991 RMK AO2 SLP115
T02500194 10278 20250 53007





000
SAUS44 KLZK 021054
MTRMWT
METAR KMWT 021053Z AUTO VRB06KT 10SM CLR 25/19 A2989 RMK AO2 SLP108
T02500189





000
SAUS44 KLZK 020954
MTRMWT
METAR KMWT 020953Z AUTO VRB03KT 10SM CLR 26/19 A2989 RMK AO2 SLP105
T02560194





000
SAUS44 KLZK 020854
MTRMWT
METAR KMWT 020853Z AUTO 10SM CLR 27/19 A2989 RMK AO2 SLP106
T02670194 58005





000
SAUS44 KLZK 020854
MTRMWT
METAR KMWT 020853Z AUTO 10SM CLR 27/19 A2989 RMK AO2 SLP106
T02670194 58005





000
SAUS44 KLZK 020754
MTRMWT
METAR KMWT 020753Z AUTO VRB06KT 10SM CLR 27/21 A2989 RMK AO2 SLP108
T02670211





000
SAUS44 KLZK 020654
MTRMWT
METAR KMWT 020653Z AUTO VRB04KT 10SM CLR 27/21 A2991 RMK AO2 SLP111
T02720211





000
SAUS44 KLZK 020554
MTRMWT
METAR KMWT 020553Z AUTO VRB05KT 10SM CLR 28/22 A2990 RMK AO2 SLP112
T02780217 10300 20278 403170233 55004





000
SAUS44 KLZK 020454
MTRMWT
METAR KMWT 020453Z AUTO VRB04KT 10SM CLR 28/22 A2990 RMK AO2 SLP111
T02830217





000
SAUS44 KLZK 020454
MTRMWT
METAR KMWT 020453Z AUTO VRB04KT 10SM CLR 28/22 A2990 RMK AO2 SLP111
T02830217





000
SAUS44 KLZK 020354
MTRMWT
METAR KMWT 020353Z AUTO 10SM CLR 28/21 A2991 RMK AO2 SLP112
T02830211





000
SAUS44 KLZK 020254
MTRMWT
METAR KMWT 020253Z AUTO VRB04KT 10SM CLR 29/21 A2992 RMK AO2 SLP115
T02890211 58009





000
SAUS44 KLZK 020154
MTRMWT
METAR KMWT 020153Z AUTO 10SM CLR 28/21 A2993 RMK AO2 SLP121
T02830211





000
SAUS44 KLZK 020154
MTRMWT
METAR KMWT 020153Z AUTO 10SM CLR 28/21 A2993 RMK AO2 SLP121
T02830211





000
SAUS44 KLZK 020054
MTRMWT
METAR KMWT 020053Z AUTO VRB03KT 10SM CLR 29/22 A2994 RMK AO2 SLP126
T02940217





000
SAUS44 KLZK 012354
MTRMWT
METAR KMWT 012353Z AUTO VRB04KT 10SM FEW055 30/22 A2994 RMK AO2
SLP125 T03000217 10317 20300 53001





000
SAUS44 KLZK 012354
MTRMWT
METAR KMWT 012353Z AUTO VRB04KT 10SM FEW055 30/22 A2994 RMK AO2
SLP125 T03000217 10317 20300 53001





000
SAUS44 KLZK 012257
MTRMWT
METAR KMWT 012253Z AUTO 24005KT 10SM CLR 31/22 A2993 RMK AO2 SLP122
T03110217





000
SAUS44 KLZK 012257
MTRMWT
METAR KMWT 012253Z AUTO 24005KT 10SM CLR 31/22 A2993 RMK AO2 SLP122
T03110217





000
SAUS44 KLZK 012154
MTRMWT
METAR KMWT 012153Z AUTO VRB03KT 10SM SCT044 32/22 A2994 RMK AO2
SLP123 T03170217





000
SAUS44 KLZK 012054
MTRMWT
METAR KMWT 012053Z AUTO VRB05KT 10SM FEW042 32/22 A2994 RMK AO2
SLP123 T03170217 58018





000
SAUS44 KLZK 011955
MTRMWT
METAR KMWT 011953Z AUTO VRB06KT 10SM FEW039 31/22 A2996 RMK AO2
SLP130 T03110217





000
SAUS44 KLZK 011854
MTRMWT
METAR KMWT 011853Z AUTO 00000KT 10SM CLR 31/21 A2998 RMK AO2 SLP137
T03110211





000
SAUS44 KLZK 011854
MTRMWT
METAR KMWT 011853Z AUTO 00000KT 10SM CLR 31/21 A2998 RMK AO2 SLP137
T03110211





000
SAUS44 KLZK 011756
MTRMWT
METAR KMWT 011753Z AUTO VRB06KT 10SM CLR 30/22 A2999 RMK AO2 SLP141
T03000217 10300 20233 50001





000
SAUS44 KLZK 011756
MTRMWT
METAR KMWT 011753Z AUTO VRB06KT 10SM CLR 30/22 A2999 RMK AO2 SLP141
T03000217 10300 20233 50001





    US Dept of Commerce
    National Oceanic and Atmospheric Administration
    National Weather Service
    1325 East West Highway
    Silver Spring, MD 20910
    Page Author: NWS Internet Services Team
Disclaimer
Information Quality
Credits
Glossary
Privacy Policy
Freedom of Information Act (FOIA)
About Us
Career Opportunities